Time;durP1;ratioP1;P1;durP2;ratioP2;P2;SDS_P1;SDS_P2;PMS_P1;PMS_P2;Temp;Humidity;BMP_temperature;BMP_pressure;BME280_temperature;BME280_humidity;BME280_pressure;Samples;Min_cycle;Max_cycle;Signal;HPM_P1;HPM_P2
2023/08/04 00:02:06;;;;;;;9.88;5.03;;;;;;;16.52;100.00;100942.81;5220886;28;20025;-75
2023/08/04 00:04:38;;;;;;;11.73;5.00;;;;;;;16.48;100.00;100936.22;5223466;28;20053;-75
2023/08/04 00:07:09;;;;;;;11.48;5.15;;;;;;;16.48;100.00;100938.84;5217597;28;20243;-76
2023/08/04 00:09:40;;;;;;;11.25;4.80;;;;;;;16.44;100.00;100938.34;5219472;28;20099;-75
2023/08/04 00:12:11;;;;;;;9.25;4.53;;;;;;;16.43;100.00;100949.06;5219347;28;20148;-74
2023/08/04 00:14:46;;;;;;;11.57;5.13;;;;;;;16.52;100.00;100941.00;5215562;28;20390;-74
2023/08/04 00:17:17;;;;;;;11.23;4.90;;;;;;;16.39;100.00;100947.75;5214543;28;20033;-74
2023/08/04 00:19:48;;;;;;;9.45;4.22;;;;;;;16.41;100.00;100945.78;5217237;28;20398;-75
2023/08/04 00:22:19;;;;;;;14.27;5.78;;;;;;;16.41;100.00;100956.38;5220279;28;20036;-75
2023/08/04 00:24:51;;;;;;;8.07;4.28;;;;;;;16.38;100.00;100951.41;5214504;28;20453;-75
2023/08/04 00:27:22;;;;;;;10.50;5.75;;;;;;;16.29;100.00;100951.41;5220098;28;20471;-75
2023/08/04 00:29:54;;;;;;;13.55;5.60;;;;;;;16.21;100.00;100948.75;5216159;28;20026;-75
2023/08/04 00:32:25;;;;;;;11.13;5.22;;;;;;;16.22;100.00;100947.75;5221396;28;20037;-75
2023/08/04 00:34:57;;;;;;;12.00;5.10;;;;;;;16.14;100.00;100954.84;5216000;28;20025;-75
2023/08/04 00:37:28;;;;;;;10.23;4.90;;;;;;;16.16;100.00;100956.34;5218014;28;20064;-75
2023/08/04 00:39:59;;;;;;;12.00;5.45;;;;;;;16.16;100.00;100958.97;5218887;28;20041;-75
2023/08/04 00:42:31;;;;;;;10.70;5.40;;;;;;;16.11;100.00;100956.00;5221363;28;20028;-75
2023/08/04 00:45:04;;;;;;;12.70;5.57;;;;;;;16.18;100.00;100966.78;5216397;28;20116;-75
2023/08/04 00:47:38;;;;;;;11.57;5.47;;;;;;;16.01;100.00;100960.63;5217921;28;20025;-75
2023/08/04 00:50:10;;;;;;;11.10;4.80;;;;;;;16.00;100.00;100967.72;5226133;28;20432;-75
2023/08/04 00:52:42;;;;;;;15.30;5.40;;;;;;;15.95;100.00;100958.66;5221837;28;20029;-75
2023/08/04 00:55:14;;;;;;;13.00;5.63;;;;;;;15.99;100.00;100962.59;5203526;28;20048;-75
2023/08/04 00:57:47;;;;;;;11.75;5.18;;;;;;;15.98;100.00;100977.59;5220756;28;20034;-75
2023/08/04 01:00:18;;;;;;;7.40;4.85;;;;;;;15.98;100.00;100972.31;5222253;28;20410;-75
2023/08/04 01:02:49;;;;;;;10.43;5.47;;;;;;;15.81;100.00;100971.47;5221721;28;20029;-75
2023/08/04 01:05:28;;;;;;;14.80;6.55;;;;;;;16.01;100.00;100981.75;5227696;28;20121;-75
2023/08/04 01:08:13;;;;;;;9.68;5.55;;;;;;;16.01;100.00;100979.13;5224103;28;20464;-75
2023/08/04 01:10:59;;;;;;;8.95;5.13;;;;;;;16.01;100.00;100979.13;5222688;28;20362;-75
2023/08/04 01:13:31;;;;;;;9.43;5.30;;;;;;;15.80;100.00;100987.50;5224825;28;20029;-75
2023/08/04 01:16:05;;;;;;;12.10;5.47;;;;;;;15.76;100.00;100971.13;5224315;28;20026;-75
2023/08/04 01:18:37;;;;;;;12.45;5.00;;;;;;;15.76;100.00;100984.34;5209323;28;20055;-75
2023/08/04 01:21:08;;;;;;;14.75;5.53;;;;;;;15.84;100.00;100988.00;5226140;28;20135;-75
2023/08/04 01:23:39;;;;;;;11.40;5.78;;;;;;;15.80;100.00;100988.31;5223657;28;20029;-75
2023/08/04 01:26:11;;;;;;;8.90;5.30;;;;;;;15.85;100.00;100987.84;5221353;28;20112;-75
2023/08/04 01:28:45;;;;;;;13.10;5.82;;;;;;;15.88;100.00;100981.41;5220479;28;20037;-75
2023/08/04 01:31:16;;;;;;;11.85;5.40;;;;;;;15.78;100.00;100982.34;5224946;28;20021;-75
2023/08/04 01:33:48;;;;;;;12.25;5.88;;;;;;;15.85;100.00;100994.94;5220424;28;20025;-75
2023/08/04 01:36:19;;;;;;;12.35;6.00;;;;;;;15.85;100.00;100998.41;5222105;28;20222;-75
2023/08/04 01:38:51;;;;;;;11.07;6.43;;;;;;;15.90;100.00;101005.84;5224618;28;20333;-75
2023/08/04 01:41:22;;;;;;;12.65;5.45;;;;;;;15.80;100.00;100998.06;5225027;28;20395;-74
2023/08/04 01:43:53;;;;;;;9.00;5.85;;;;;;;15.84;100.00;101004.69;5225499;28;20065;-75
2023/08/04 01:46:24;;;;;;;9.00;5.00;;;;;;;15.82;100.00;101004.81;5227652;28;20029;-74
2023/08/04 01:48:56;;;;;;;10.05;5.70;;;;;;;15.75;100.00;100990.59;5223334;28;20168;-74
2023/08/04 01:51:27;;;;;;;12.68;6.78;;;;;;;15.81;100.00;101002.34;5219052;28;20025;-75
2023/08/04 01:53:58;;;;;;;12.80;6.97;;;;;;;15.84;100.00;101004.69;5224056;28;20053;-74
2023/08/04 01:56:30;;;;;;;10.25;6.18;;;;;;;15.90;100.00;101005.84;5225087;28;20527;-74
2023/08/04 01:59:01;;;;;;;10.60;6.15;;;;;;;15.82;100.00;101002.19;5222607;28;20038;-74
2023/08/04 02:01:32;;;;;;;11.35;6.00;;;;;;;15.88;100.00;101002.53;5207338;28;20033;-74
2023/08/04 02:04:03;;;;;;;12.98;6.28;;;;;;;15.92;100.00;101011.81;5225447;28;20046;-74
2023/08/04 02:06:35;;;;;;;12.30;6.68;;;;;;;15.93;100.00;101008.16;5224313;28;20026;-74
2023/08/04 02:09:06;;;;;;;11.15;6.10;;;;;;;15.90;100.00;101017.22;5222686;28;20025;-74
2023/08/04 02:11:37;;;;;;;10.80;6.20;;;;;;;15.87;100.00;101014.09;5225484;28;20033;-74
2023/08/04 02:14:09;;;;;;;8.75;6.28;;;;;;;15.78;100.00;101011.41;5204686;28;20223;-74
2023/08/04 02:16:40;;;;;;;9.85;6.20;;;;;;;15.80;100.00;101012.09;5222542;28;20068;-74
2023/08/04 02:19:11;;;;;;;9.25;5.93;;;;;;;15.79;100.00;101010.41;5222795;28;20037;-74
2023/08/04 02:21:43;;;;;;;9.50;5.93;;;;;;;15.79;100.00;101014.88;5225882;28;20035;-74
2023/08/04 02:24:14;;;;;;;9.93;5.63;;;;;;;15.76;100.00;101004.66;5223669;28;20022;-74
2023/08/04 02:26:46;;;;;;;12.40;6.05;;;;;;;15.79;100.00;101010.41;5223404;28;20036;-74
2023/08/04 02:29:17;;;;;;;10.57;5.82;;;;;;;15.78;100.00;101013.22;5222374;28;20080;-74
2023/08/04 02:31:48;;;;;;;11.15;6.55;;;;;;;15.81;100.00;101023.50;5223972;28;20459;-74
2023/08/04 02:34:20;;;;;;;13.73;6.55;;;;;;;15.78;100.00;101018.53;5222323;28;20126;-74
2023/08/04 02:36:51;;;;;;;14.73;5.65;;;;;;;15.79;100.00;101023.63;5224208;28;20045;-74
2023/08/04 02:39:22;;;;;;;12.13;6.25;;;;;;;15.74;100.00;101018.00;5223278;28;20068;-74
2023/08/04 02:41:57;;;;;;;9.48;5.82;;;;;;;15.73;100.00;101020.81;5204713;28;20037;-74
2023/08/04 02:44:28;;;;;;;10.45;6.55;;;;;;;15.71;100.00;101022.78;5219923;28;20033;-75
2023/08/04 02:46:59;;;;;;;9.55;5.88;;;;;;;15.72;100.00;101032.34;5224417;28;20034;-75
2023/08/04 02:49:31;;;;;;;7.10;5.78;;;;;;;15.76;100.00;101023.16;5206054;28;20021;-75
2023/08/04 02:52:04;;;;;;;14.18;6.38;;;;;;;15.74;100.00;101025.94;5208310;28;20041;-74
2023/08/04 02:54:35;;;;;;;8.27;5.88;;;;;;;15.71;100.00;101022.78;5218952;28;20026;-74
2023/08/04 02:57:07;;;;;;;11.68;7.18;;;;;;;15.68;100.00;101025.72;5222695;28;20276;-74
2023/08/04 02:59:38;;;;;;;9.68;5.55;;;;;;;15.74;100.00;101027.75;5222999;28;20032;-74
2023/08/04 03:02:09;;;;;;;10.80;5.50;;;;;;;15.75;100.00;101022.28;5219982;28;20033;-74
2023/08/04 03:04:40;;;;;;;10.02;6.00;;;;;;;15.70;100.00;101023.78;5248146;22;20060;-69
2023/08/04 03:07:12;;;;;;;13.50;6.10;;;;;;;15.70;100.00;101027.25;5221607;28;20134;-69
2023/08/04 03:09:43;;;;;;;10.05;6.55;;;;;;;15.75;100.00;101032.88;5221316;28;20049;-69
2023/08/04 03:12:14;;;;;;;14.38;6.93;;;;;;;15.71;100.00;101026.25;5223820;28;20022;-69
2023/08/04 03:14:45;;;;;;;10.48;5.72;;;;;;;15.60;100.00;101036.25;5221880;28;20030;-69
2023/08/04 03:17:17;;;;;;;10.00;5.88;;;;;;;15.69;100.00;101032.69;5222978;28;20080;-69
2023/08/04 03:19:48;;;;;;;11.52;5.78;;;;;;;15.65;100.00;101037.47;5223326;28;20018;-69
2023/08/04 03:22:19;;;;;;;13.07;5.80;;;;;;;15.66;100.00;101038.28;5222874;28;20028;-69
2023/08/04 03:24:50;;;;;;;10.00;5.43;;;;;;;15.64;100.00;101038.41;5223779;28;20026;-69
2023/08/04 03:27:23;;;;;;;9.43;5.75;;;;;;;15.70;100.00;101043.09;5219818;28;20032;-69
2023/08/04 03:29:54;;;;;;;11.40;5.97;;;;;;;15.73;100.00;101039.31;5223156;28;20479;-69
2023/08/04 03:32:26;;;;;;;11.20;6.05;;;;;;;15.75;100.00;101050.53;5221489;28;20075;-69
2023/08/04 03:34:57;;;;;;;11.07;5.88;;;;;;;15.76;100.00;101047.75;5220119;28;20038;-69
2023/08/04 03:37:28;;;;;;;8.77;5.60;;;;;;;15.77;100.00;101052.03;5219593;28;20017;-69
2023/08/04 03:39:59;;;;;;;9.25;6.05;;;;;;;15.77;100.00;101051.22;5221291;28;20030;-69
2023/08/04 03:42:31;;;;;;;13.40;5.95;;;;;;;15.75;100.00;101050.53;5221303;28;20030;-69
2023/08/04 03:45:02;;;;;;;12.57;5.85;;;;;;;15.76;100.00;101052.22;5220101;28;20053;-69
2023/08/04 03:47:34;;;;;;;9.88;5.70;;;;;;;15.71;100.00;101044.72;5221339;28;20026;-69
2023/08/04 03:50:06;;;;;;;9.02;5.82;;;;;;;15.71;100.00;101044.72;5225766;28;20026;-69
2023/08/04 03:52:38;;;;;;;8.48;5.88;;;;;;;15.66;100.00;101049.69;5221346;28;20041;-69
2023/08/04 03:55:09;;;;;;;10.75;5.95;;;;;;;15.67;100.00;101050.50;5222290;28;20018;-69
2023/08/04 03:57:40;;;;;;;10.85;6.55;;;;;;;15.61;100.00;101057.22;5223836;28;20025;-69
2023/08/04 04:00:12;;;;;;;12.40;6.22;;;;;;;15.60;100.00;101063.47;5220753;28;20030;-69
2023/08/04 04:02:43;;;;;;;10.30;5.75;;;;;;;15.62;100.00;101056.22;5223942;28;20025;-69
2023/08/04 04:05:14;;;;;;;11.35;5.65;;;;;;;15.61;100.00;101059.00;5222217;28;20044;-70
2023/08/04 04:07:46;;;;;;;10.73;5.75;;;;;;;15.56;100.00;101065.59;5221546;28;20493;-69
2023/08/04 04:10:17;;;;;;;7.85;5.35;;;;;;;15.55;100.00;101063.13;5223394;28;20451;-69
2023/08/04 04:12:48;;;;;;;8.98;5.95;;;;;;;15.55;100.00;101061.31;5219336;28;20356;-69
2023/08/04 04:15:20;;;;;;;9.80;6.05;;;;;;;15.53;100.00;101063.28;5217614;28;20080;-69
2023/08/04 04:17:51;;;;;;;12.70;6.47;;;;;;;15.51;100.00;101065.25;5221908;28;20032;-69
2023/08/04 04:20:22;;;;;;;10.60;5.82;;;;;;;15.48;100.00;101060.28;5222164;28;20018;-69
2023/08/04 04:22:53;;;;;;;7.47;5.47;;;;;;;15.46;100.00;101066.72;5224230;28;20022;-69
2023/08/04 04:25:25;;;;;;;10.40;6.00;;;;;;;15.45;100.00;101071.13;5225582;28;20463;-69
2023/08/04 04:27:56;;;;;;;8.32;5.40;;;;;;;15.41;100.00;101068.97;5227208;28;20049;-69
2023/08/04 04:30:27;;;;;;;8.55;5.38;;;;;;;15.47;100.00;101076.28;5226516;28;20029;-69
2023/08/04 04:32:58;;;;;;;8.90;5.57;;;;;;;15.45;100.00;101075.59;5226902;28;20152;-69
2023/08/04 04:35:30;;;;;;;11.80;6.00;;;;;;;15.41;100.00;101075.09;5225011;28;20065;-69
2023/08/04 04:38:01;;;;;;;10.73;6.45;;;;;;;15.44;100.00;101081.88;5225114;28;20033;-69
2023/08/04 04:40:32;;;;;;;8.60;5.28;;;;;;;15.41;100.00;101083.00;5225279;28;20049;-69
2023/08/04 04:43:03;;;;;;;8.48;5.60;;;;;;;15.42;100.00;101079.41;5225367;28;20469;-69
2023/08/04 04:45:35;;;;;;;8.10;6.07;;;;;;;15.40;100.00;101076.06;5227062;28;20509;-69
2023/08/04 04:48:06;;;;;;;13.52;7.18;;;;;;;15.42;100.00;101089.09;5225260;28;20038;-69
2023/08/04 04:50:37;;;;;;;11.18;7.03;;;;;;;15.42;100.00;101091.75;5223781;28;20053;-69
2023/08/04 04:53:09;;;;;;;11.23;6.97;;;;;;;15.43;100.00;101088.97;5226451;28;20410;-69
2023/08/04 04:55:41;;;;;;;11.80;6.38;;;;;;;15.39;100.00;101081.53;5227744;28;20431;-69
2023/08/04 04:58:12;;;;;;;11.75;6.40;;;;;;;15.44;100.00;101090.63;5225540;28;20410;-69
2023/08/04 05:00:45;;;;;;;11.18;6.15;;;;;;;15.44;100.00;101093.25;5225487;28;20079;-69
2023/08/04 05:03:16;;;;;;;8.97;6.03;;;;;;;15.46;100.00;101099.22;5225991;28;20055;-69
2023/08/04 05:05:47;;;;;;;10.48;6.22;;;;;;;15.51;100.00;101094.28;5223155;28;20453;-69
2023/08/04 05:08:18;;;;;;;8.90;5.97;;;;;;;15.59;100.00;101109.34;5224798;28;20026;-69
2023/08/04 05:10:51;;;;;;;9.73;6.32;;;;;;;15.61;100.00;101109.19;5223357;28;20390;-69
2023/08/04 05:13:22;;;;;;;10.70;6.23;;;;;;;15.69;100.00;101109.28;5225980;28;20040;-69
2023/08/04 05:15:53;;;;;;;11.55;6.85;;;;;;;15.75;100.00;101108.66;5225550;28;20868;-69
2023/08/04 05:18:25;;;;;;;12.35;6.50;;;;;;;15.78;100.00;101111.81;5225781;28;20108;-69
2023/08/04 05:20:56;;;;;;;12.73;6.80;;;;;;;15.82;100.00;101104.38;5225690;28;20029;-69
2023/08/04 05:23:27;;;;;;;12.30;6.88;;;;;;;15.94;100.00;101118.16;5224212;28;20119;-69
2023/08/04 05:25:58;;;;;;;11.65;6.07;;;;;;;16.01;100.00;101116.53;5220797;28;20375;-69
2023/08/04 05:28:32;;;;;;;10.32;6.13;;;;;;;16.02;100.00;101119.03;5229072;28;20740;-69
2023/08/04 05:31:04;;;;;;;9.55;6.47;;;;;;;16.08;100.00;101125.47;5224976;28;20029;-69
2023/08/04 05:33:35;;;;;;;11.32;6.95;;;;;;;16.24;100.00;101130.81;5223505;28;20033;-69
2023/08/04 05:36:07;;;;;;;10.65;6.07;;;;;;;16.32;100.00;101124.72;5223800;28;20399;-69
2023/08/04 05:38:38;;;;;;;10.73;6.80;;;;;;;16.37;100.00;101132.22;5222495;28;20017;-69
2023/08/04 05:41:09;;;;;;;12.45;6.47;;;;;;;16.50;100.00;101127.28;5221546;28;20124;-69
2023/08/04 05:43:41;;;;;;;10.40;6.65;;;;;;;16.58;100.00;101124.63;5222618;28;20034;-69
2023/08/04 05:46:15;;;;;;;10.98;6.70;;;;;;;16.68;100.00;101120.03;5226143;28;20467;-69
2023/08/04 05:48:46;;;;;;;9.43;6.55;;;;;;;16.68;100.00;101130.63;5224907;28;20026;-69
2023/08/04 05:51:18;;;;;;;11.00;6.88;;;;;;;16.78;100.00;101136.63;5223233;28;20037;-69
2023/08/04 05:53:49;;;;;;;11.55;6.80;;;;;;;16.82;100.00;101141.56;5223135;28;20029;-69
2023/08/04 05:56:20;;;;;;;12.07;7.05;;;;;;;16.89;100.00;101145.22;5224738;28;20029;-69
2023/08/04 05:58:51;;;;;;;9.20;6.65;;;;;;;16.93;100.00;101146.53;5222501;28;20034;-69
2023/08/04 06:01:26;;;;;;;9.73;6.83;;;;;;;17.11;100.00;101139.28;5222781;28;20022;-69
2023/08/04 06:03:57;;;;;;;10.15;7.05;;;;;;;17.15;100.00;101143.25;5221831;28;20341;-69
2023/08/04 06:06:28;;;;;;;13.55;7.05;;;;;;;17.26;100.00;101144.72;5222516;28;20034;-69
2023/08/04 06:09:00;;;;;;;9.63;6.97;;;;;;;17.35;100.00;101154.34;5222477;28;20125;-69
2023/08/04 06:11:31;;;;;;;12.88;6.93;;;;;;;17.36;100.00;101153.34;5222903;28;20056;-69
2023/08/04 06:14:02;;;;;;;13.52;7.75;;;;;;;17.52;100.00;101147.19;5220139;28;20033;-69
2023/08/04 06:16:34;;;;;;;11.75;6.70;;;;;;;17.62;100.00;101147.03;5224033;28;20021;-69
2023/08/04 06:19:05;;;;;;;9.52;7.32;;;;;;;17.74;100.00;101159.72;5223146;28;20033;-69
2023/08/04 06:21:36;;;;;;;10.77;6.95;;;;;;;17.82;100.00;101164.22;5224235;28;20025;-69
2023/08/04 06:24:07;;;;;;;11.98;6.57;;;;;;;17.94;100.00;101162.03;5224984;28;20072;-69
2023/08/04 06:26:39;;;;;;;9.45;6.38;;;;;;;18.17;100.00;101165.59;5222759;28;20687;-69
2023/08/04 06:29:10;;;;;;;11.38;6.55;;;;;;;18.27;100.00;101162.75;5225150;28;20026;-69
2023/08/04 06:31:41;;;;;;;9.00;5.85;;;;;;;18.45;100.00;101168.63;5222602;28;20056;-69
2023/08/04 06:34:12;;;;;;;9.60;6.60;;;;;;;18.56;100.00;101177.19;5222669;28;20098;-69
2023/08/04 06:36:47;;;;;;;8.15;5.78;;;;;;;18.66;100.00;101175.97;5225941;28;20397;-69
2023/08/04 06:39:18;;;;;;;9.45;5.90;;;;;;;18.62;100.00;101177.31;5224078;28;20048;-69
2023/08/04 06:41:50;;;;;;;10.27;6.53;;;;;;;18.79;100.00;101180.75;5223126;28;20025;-70
2023/08/04 06:44:21;;;;;;;10.88;6.60;;;;;;;18.88;100.00;101187.63;5222674;28;20068;-70
2023/08/04 06:46:52;;;;;;;9.55;6.97;;;;;;;19.02;100.00;101187.91;5221567;28;20701;-70
2023/08/04 06:49:24;;;;;;;12.30;6.15;;;;;;;19.15;100.00;101193.44;5225889;28;20057;-70
2023/08/04 06:51:55;;;;;;;10.50;6.82;;;;;;;19.26;100.00;101189.53;5223944;28;20033;-70
2023/08/04 06:54:26;;;;;;;11.23;6.90;;;;;;;19.39;100.00;101189.72;5224100;28;20026;-69
2023/08/04 06:56:58;;;;;;;8.65;6.28;;;;;;;19.57;100.00;101192.06;5220064;28;20117;-70
2023/08/04 06:59:29;;;;;;;11.20;5.40;;;;;;;19.55;100.00;101200.25;5221921;28;20022;-70
2023/08/04 07:02:00;;;;;;;8.63;5.20;;;;;;;19.56;100.00;101201.06;5221920;28;20034;-70
2023/08/04 07:04:31;;;;;;;7.32;5.38;;;;;;;19.53;100.00;101201.41;5220549;28;20058;-70
2023/08/04 07:07:03;;;;;;;7.90;5.18;;;;;;;19.50;100.00;101199.94;5223975;28;20067;-70
2023/08/04 07:09:34;;;;;;;10.53;5.47;;;;;;;19.47;100.00;101207.44;5221569;28;20029;-70
2023/08/04 07:12:06;;;;;;;9.10;5.57;;;;;;;19.52;100.00;101210.41;5220332;28;20087;-70
2023/08/04 07:14:37;;;;;;;8.17;5.37;;;;;;;19.60;100.00;101208.47;5219726;28;20040;-70
2023/08/04 07:17:08;;;;;;;9.27;5.73;;;;;;;19.59;100.00;101214.00;5222541;28;20030;-70
2023/08/04 07:19:40;;;;;;;7.13;5.80;;;;;;;19.62;100.00;101213.63;5219305;28;20034;-70
2023/08/04 07:22:11;;;;;;;11.80;6.20;;;;;;;19.81;100.00;101215.81;5220637;28;20038;-70
2023/08/04 07:24:43;;;;;;;8.37;5.13;;;;;;;20.03;100.00;101219.38;5223536;28;20026;-70
2023/08/04 07:27:14;;;;;;;5.95;4.78;;;;;;;20.06;100.00;101220.84;5219065;28;20051;-70
2023/08/04 07:29:46;;;;;;;8.47;4.90;;;;;;;20.06;100.00;101219.00;5220507;28;20047;-70
2023/08/04 07:32:18;;;;;;;8.20;4.50;;;;;;;20.15;100.00;101222.41;5219767;28;20034;-70
2023/08/04 07:34:49;;;;;;;7.10;4.20;;;;;;;20.18;100.00;101224.69;5222215;28;20033;-70
2023/08/04 07:37:21;;;;;;;6.70;4.43;;;;;;;20.24;100.00;101225.81;5219804;28;20022;-70
2023/08/04 07:39:52;;;;;;;7.57;4.40;;;;;;;20.16;100.00;101230.22;5219103;28;20021;-70
2023/08/04 07:42:23;;;;;;;6.67;4.13;;;;;;;20.14;100.00;101226.91;5222229;28;20055;-70
2023/08/04 07:44:54;;;;;;;8.20;4.40;;;;;;;20.18;100.00;101232.69;5220436;28;20021;-70
2023/08/04 07:47:26;;;;;;;6.20;3.83;;;;;;;20.16;100.00;101240.84;5222459;28;20039;-70
2023/08/04 07:49:57;;;;;;;7.70;3.87;;;;;;;20.11;100.00;101237.06;5221206;28;20438;-70
2023/08/04 07:52:28;;;;;;;9.03;3.80;;;;;;;20.12;100.00;101236.09;5218488;28;20077;-70
2023/08/04 07:54:59;;;;;;;6.20;3.77;;;;;;;20.15;100.00;101233.03;5223648;28;20025;-70
2023/08/04 07:57:31;;;;;;;4.03;2.50;;;;;;;20.24;100.00;101236.44;5216624;28;20029;-70
2023/08/04 08:00:02;;;;;;;7.15;2.95;;;;;;;20.21;100.00;101236.81;5220037;28;20037;-70
2023/08/04 08:02:34;;;;;;;5.93;2.70;;;;;;;20.16;100.00;101235.53;5220709;28;20037;-70
2023/08/04 08:05:07;;;;;;;5.53;2.70;;;;;;;20.23;100.00;101242.75;5221900;28;20045;-70
2023/08/04 08:07:39;;;;;;;6.03;3.13;;;;;;;20.21;100.00;101242.97;5220799;28;20063;-70
2023/08/04 08:10:10;;;;;;;5.35;2.55;;;;;;;20.42;100.00;101244.88;5221056;28;20026;-70
2023/08/04 08:12:41;;;;;;;4.90;2.87;;;;;;;20.36;100.00;101248.28;5220258;28;20041;-70
2023/08/04 08:15:12;;;;;;;6.90;2.47;;;;;;;20.42;100.00;101250.22;5220683;28;20029;-70
2023/08/04 08:17:44;;;;;;;7.20;2.60;;;;;;;20.45;100.00;101249.81;5221459;28;20079;-70
2023/08/04 08:20:15;;;;;;;8.80;2.83;;;;;;;20.50;100.00;101247.47;5221179;28;20484;-70
2023/08/04 08:22:46;;;;;;;4.93;2.40;;;;;;;20.71;100.00;101246.69;5218236;28;20510;-70
2023/08/04 08:25:18;;;;;;;5.30;2.20;;;;;;;20.96;100.00;101249.84;5217249;28;20037;-70
2023/08/04 08:27:49;;;;;;;5.03;2.27;;;;;;;21.19;100.00;101254.19;5224580;28;20040;-70
2023/08/04 08:30:20;;;;;;;7.30;2.47;;;;;;;21.35;100.00;101253.97;5222701;28;20037;-70
2023/08/04 08:32:51;;;;;;;3.67;2.00;;;;;;;21.36;100.00;101259.09;5221469;28;20025;-70
2023/08/04 08:35:23;;;;;;;4.83;2.83;;;;;;;21.44;100.00;101259.97;5222280;28;20040;-70
2023/08/04 08:37:54;;;;;;;3.63;2.10;;;;;;;21.35;100.00;101272.63;5220157;28;20029;-69
2023/08/04 08:40:26;;;;;;;4.73;2.03;;;;;;;21.30;100.00;101265.16;5215293;28;20157;-70
2023/08/04 08:42:57;;;;;;;4.05;2.20;;;;;;;21.26;100.00;101263.06;5218695;28;20040;-70
2023/08/04 08:45:29;;;;;;;6.07;2.40;;;;;;;21.26;100.00;101271.06;5221850;28;20386;-70
2023/08/04 08:48:00;;;;;;;7.57;3.17;;;;;;;21.27;100.00;101278.88;5217802;28;20505;-71
2023/08/04 08:50:32;;;;;;;5.70;2.57;;;;;;;21.12;100.00;101276.25;5219402;28;20076;-70
2023/08/04 08:53:13;;;;;;;5.70;2.58;;;;;;;21.26;100.00;101282.56;5220446;28;20405;-70
2023/08/04 08:55:45;;;;;;;6.10;2.80;;;;;;;21.09;100.00;101283.78;5216700;28;20530;-70
2023/08/04 08:58:17;;;;;;;4.03;2.43;;;;;;;21.45;100.00;101283.78;5218129;28;20033;-70
2023/08/04 09:00:49;;;;;;;6.00;2.43;;;;;;;21.52;100.00;101274.03;5219085;28;20113;-70
2023/08/04 09:03:20;;;;;;;6.27;2.33;;;;;;;21.69;100.00;101281.75;5218231;28;20030;-71
2023/08/04 09:05:52;;;;;;;5.17;2.10;;;;;;;21.92;100.00;101271.66;5269192;22;20045;-74
2023/08/04 09:08:23;;;;;;;3.97;2.13;;;;;;;22.04;100.00;101288.75;5261000;28;20551;-77
2023/08/04 09:10:54;;;;;;;3.40;1.93;;;;;;;22.04;100.00;101285.28;5260368;28;20024;-77
2023/08/04 09:13:26;;;;;;;4.33;2.10;;;;;;;21.99;100.00;101285.03;5254468;28;20025;-74
2023/08/04 09:15:58;;;;;;;4.57;2.20;;;;;;;21.83;100.00;101291.50;5252929;28;20578;-76
2023/08/04 09:18:32;;;;;;;3.22;1.92;;;;;;;21.61;100.00;101298.69;5252492;28;20025;-78
2023/08/04 09:21:12;;;;;;;4.57;2.10;;;;;;;21.46;100.00;101301.44;5254140;28;20037;-77
2023/08/04 09:23:48;;;;;;;4.93;1.73;;;;;;;21.24;100.00;101297.91;5254644;28;20025;-76
2023/08/04 09:26:19;;;;;;;2.90;1.60;;;;;;;21.11;100.00;101301.25;5254465;28;20036;-76
2023/08/04 09:29:05;;;;;;;3.37;1.87;;;;;;;21.46;100.00;101301.44;5253744;28;20092;-76
2023/08/04 09:31:38;;;;;;;4.05;2.10;;;;;;;21.02;100.00;101306.88;5251617;28;20040;-75
2023/08/04 09:34:10;;;;;;;4.22;1.88;;;;;;;20.98;100.00;101298.41;5254174;28;20120;-77
2023/08/04 09:36:47;;;;;;;3.95;1.70;;;;;;;21.31;100.00;101303.31;5253797;28;20041;-78
2023/08/04 09:39:18;;;;;;;3.00;1.75;;;;;;;21.16;100.00;101305.19;5253525;28;20492;-76
2023/08/04 09:41:50;;;;;;;3.30;1.63;;;;;;;21.33;100.00;101296.81;5255394;28;20032;-76
2023/08/04 09:44:33;;;;;;;3.53;1.80;;;;;;;21.85;100.00;101308.13;5254721;28;20077;-78
2023/08/04 09:47:05;;;;;;;3.70;2.13;;;;;;;21.74;100.00;101297.97;5248194;28;20163;-76
2023/08/04 09:49:36;;;;;;;6.90;1.93;;;;;;;21.95;100.00;101305.13;5255254;28;20033;-78
2023/08/04 09:52:07;;;;;;;3.27;1.97;;;;;;;22.00;100.00;101308.03;5246676;28;20037;-75
2023/08/04 09:54:39;;;;;;;5.37;2.17;;;;;;;22.10;100.00;101304.00;5260570;28;20036;-77
2023/08/04 09:57:13;;;;;;;3.63;1.80;;;;;;;22.15;100.00;101302.63;5256546;28;20025;-79
2023/08/04 09:59:47;;;;;;;4.68;1.58;;;;;;;22.24;100.00;101296.13;5255691;28;20436;-76
2023/08/04 10:02:19;;;;;;;3.25;1.40;;;;;;;22.18;100.00;101302.25;5253725;28;20151;-75
2023/08/04 10:04:51;;;;;;;3.75;1.50;;;;;;;22.10;100.00;101311.19;5256251;28;20036;-75
2023/08/04 10:07:23;;;;;;;3.13;1.40;;;;;;;21.97;100.00;101305.75;5255862;28;20021;-76
2023/08/04 10:09:54;;;;;;;3.30;1.58;;;;;;;21.72;100.00;101310.69;5252958;28;20027;-75
2023/08/04 10:12:26;;;;;;;6.10;1.47;;;;;;;21.41;100.00;101322.50;5253614;28;20580;-76
2023/08/04 10:14:58;;;;;;;2.45;1.27;;;;;;;21.22;100.00;101315.94;5252048;28;20047;-76
2023/08/04 10:17:29;;;;;;;4.00;1.43;;;;;;;21.14;100.00;101318.72;5253210;28;20025;-75
2023/08/04 10:20:05;;;;;;;3.50;1.37;;;;;;;21.07;100.00;101310.63;5253987;28;20025;-75
2023/08/04 10:22:42;;;;;;;2.33;1.20;;;;;;;21.25;100.00;101309.38;5251248;28;20163;-76
2023/08/04 10:25:15;;;;;;;2.60;1.25;;;;;;;21.26;100.00;101311.03;5250758;28;20051;-75
2023/08/04 10:27:50;;;;;;;2.63;1.30;;;;;;;21.52;100.00;101308.69;5251665;28;20530;-79
2023/08/04 10:30:24;;;;;;;2.70;1.33;;;;;;;21.72;100.00;101308.03;5253356;28;20544;-79
2023/08/04 10:33:08;;;;;;;4.10;1.65;;;;;;;22.13;100.00;101310.00;5253158;28;20086;-76
2023/08/04 10:36:10;;;;;;;3.65;1.58;;;;;;;22.47;100.00;101314.53;5251348;28;20212;-75
2023/08/04 10:38:46;;;;;;;4.45;1.75;;;;;;;22.23;100.00;101299.81;5250810;28;20025;-75
2023/08/04 10:41:17;;;;;;;5.85;1.90;;;;;;;22.51;100.00;101307.78;5252599;28;20025;-79
2023/08/04 10:44:02;;;;;;;3.23;1.50;;;;;;;22.79;100.00;101324.56;5253119;28;20168;-78
2023/08/04 10:46:33;;;;;;;4.68;1.50;;;;;;;22.45;100.00;101327.25;5250762;28;20465;-76
2023/08/04 10:49:05;;;;;;;3.57;1.40;;;;;;;22.42;100.00;101325.78;5252158;28;20028;-80
2023/08/04 10:51:36;;;;;;;3.63;1.60;;;;;;;22.16;100.00;101320.28;5251107;28;20033;-76
2023/08/04 10:54:08;;;;;;;3.97;1.43;;;;;;;22.21;100.00;101329.38;5251513;28;20237;-79
2023/08/04 10:56:39;;;;;;;3.87;1.50;;;;;;;22.24;100.00;101339.66;5253732;28;20082;-78
2023/08/04 10:59:10;;;;;;;4.60;1.77;;;;;;;22.23;100.00;101331.84;5254313;28;20043;-79
2023/08/04 11:01:42;;;;;;;4.10;1.73;;;;;;;22.17;100.00;101338.78;5250790;28;20351;-75
2023/08/04 11:04:14;;;;;;;4.50;1.57;;;;;;;22.26;100.00;101340.28;5249913;28;20769;-76
2023/08/04 11:06:47;;;;;;;4.25;1.23;;;;;;;22.34;100.00;101340.13;5250388;28;20063;-76
2023/08/04 11:09:18;;;;;;;6.28;1.90;;;;;;;22.47;100.00;101336.72;5252724;28;20039;-76
2023/08/04 11:11:49;;;;;;;3.80;1.57;;;;;;;22.49;100.00;101341.84;5252537;28;20025;-78
2023/08/04 11:14:21;;;;;;;2.37;1.10;;;;;;;22.37;100.00;101346.91;5253811;28;21142;-76
2023/08/04 11:16:52;;;;;;;3.33;1.20;;;;;;;21.91;100.00;101349.22;5250583;28;20025;-76
2023/08/04 11:19:24;;;;;;;3.37;1.30;;;;;;;21.95;100.00;101345.16;5252609;28;20048;-76
2023/08/04 11:21:55;;;;;;;2.87;1.37;;;;;;;21.84;100.00;101331.31;5249251;28;20703;-75
2023/08/04 11:24:26;;;;;;;4.03;1.40;;;;;;;21.93;100.00;101356.00;5251962;28;20115;-76
2023/08/04 11:26:58;;;;;;;4.60;1.83;;;;;;;21.93;100.00;101361.34;5252472;28;20028;-76
2023/08/04 11:29:29;;;;;;;2.23;1.10;;;;;;;21.85;100.00;101370.28;5252309;28;20390;-76
2023/08/04 11:32:01;;;;;;;3.60;1.07;;;;;;;21.98;100.00;101358.94;5251149;28;20040;-76
2023/08/04 11:34:32;;;;;;;2.83;1.63;;;;;;;22.08;100.00;101353.25;5249389;28;20031;-76
2023/08/04 11:37:03;;;;;;;2.80;1.23;;;;;;;22.44;100.00;101363.00;5248289;28;20592;-76